createdAt,value
2023-01-30T00:02:16.293Z,0.80
2023-01-30T00:04:44.571Z,0.39
2023-01-30T00:07:12.781Z,0.54
2023-01-30T00:09:41.290Z,0.81
2023-01-30T00:12:10.838Z,0.82
2023-01-30T00:14:38.866Z,0.72
2023-01-30T00:17:07.263Z,0.75
2023-01-30T00:19:35.262Z,0.77
2023-01-30T00:22:03.428Z,0.39
2023-01-30T00:24:32.041Z,0.72
2023-01-30T00:27:00.324Z,0.91
2023-01-30T00:29:29.660Z,0.97
2023-01-30T00:31:57.725Z,0.95
2023-01-30T00:34:26.039Z,0.72
2023-01-30T00:37:07.430Z,0.71
2023-01-30T00:39:36.473Z,1.03
2023-01-30T00:42:22.229Z,0.96
2023-01-30T00:45:09.431Z,0.75
2023-01-30T00:47:37.938Z,0.53
2023-01-30T00:50:06.775Z,0.96
2023-01-30T00:52:34.906Z,0.81
2023-01-30T00:55:03.043Z,0.47
2023-01-30T00:57:31.140Z,0.50
2023-01-30T01:00:00.681Z,0.51
2023-01-30T01:02:28.792Z,0.50
2023-01-30T01:04:56.894Z,0.38
2023-01-30T01:07:24.951Z,0.31
2023-01-30T01:09:52.962Z,0.32
2023-01-30T01:12:21.303Z,0.48
2023-01-30T01:14:49.386Z,0.54
2023-01-30T01:17:19.076Z,0.23
2023-01-30T01:19:47.185Z,0.26
2023-01-30T01:22:15.260Z,0.63
2023-01-30T01:24:43.339Z,0.31
2023-01-30T01:27:11.331Z,0.37
2023-01-30T01:29:41.009Z,-0.04
2023-01-30T01:32:09.203Z,0.30
2023-01-30T01:34:38.581Z,0.71
2023-01-30T01:37:07.344Z,0.86
2023-01-30T01:39:50.921Z,0.81
2023-01-30T01:42:19.562Z,1.11
2023-01-30T01:45:05.810Z,1.49
2023-01-30T01:47:36.023Z,0.98
2023-01-30T01:50:07.637Z,1.45
2023-01-30T01:52:36.871Z,1.81
2023-01-30T01:55:07.585Z,2.19
2023-01-30T01:57:40.280Z,1.50
2023-01-30T02:00:13.804Z,1.49
2023-01-30T02:02:44.659Z,1.35
2023-01-30T02:05:17.329Z,2.01
2023-01-30T02:07:48.910Z,2.02
2023-01-30T02:10:20.264Z,1.88
2023-01-30T02:12:49.371Z,2.47
2023-01-30T02:15:19.428Z,1.90
2023-01-30T02:17:48.241Z,1.79
2023-01-30T02:20:28.390Z,1.80
2023-01-30T02:23:29.953Z,1.03
2023-01-30T02:26:28.803Z,1.66
2023-01-30T02:29:41.093Z,1.40
2023-01-30T02:32:20.553Z,1.75
2023-01-30T02:34:57.123Z,1.55
2023-01-30T02:37:35.098Z,1.86
2023-01-30T02:40:17.538Z,1.32
2023-01-30T02:42:51.923Z,1.62
2023-01-30T02:45:26.512Z,1.98
2023-01-30T02:48:02.220Z,2.06
2023-01-30T02:50:34.934Z,1.99
2023-01-30T02:53:04.846Z,1.51
2023-01-30T02:55:34.748Z,1.70
2023-01-30T02:58:04.701Z,1.25
2023-01-30T03:00:49.947Z,1.85
2023-01-30T03:03:40.076Z,2.09
2023-01-30T03:06:27.034Z,2.08
2023-01-30T03:09:08.551Z,1.56
2023-01-30T03:11:49.094Z,1.96
2023-01-30T03:14:25.333Z,1.95
2023-01-30T03:16:56.403Z,2.29
2023-01-30T03:19:26.101Z,1.84
2023-01-30T03:21:54.295Z,2.58
2023-01-30T03:24:22.547Z,2.50
2023-01-30T03:26:57.165Z,2.28
2023-01-30T03:29:25.329Z,1.95
2023-01-30T03:31:53.331Z,1.85
2023-01-30T03:34:21.558Z,1.88
2023-01-30T03:36:52.312Z,1.53
2023-01-30T03:39:20.848Z,2.14
2023-01-30T03:41:49.301Z,2.06
2023-01-30T03:44:18.866Z,2.11
2023-01-30T03:46:47.573Z,2.03
2023-01-30T03:49:16.130Z,1.52
2023-01-30T03:51:44.443Z,1.75
2023-01-30T03:54:13.763Z,1.82
2023-01-30T03:56:41.994Z,2.05
2023-01-30T03:59:10.514Z,2.36
2023-01-30T04:01:49.115Z,2.17
2023-01-30T04:04:17.171Z,1.54
2023-01-30T04:06:45.178Z,1.86
2023-01-30T04:09:14.775Z,1.91
2023-01-30T04:11:46.939Z,1.87
2023-01-30T04:14:15.322Z,1.71
2023-01-30T04:17:06.128Z,1.69
2023-01-30T04:20:03.746Z,2.41
2023-01-30T04:22:34.292Z,1.59
2023-01-30T04:25:04.877Z,1.67
2023-01-30T04:27:33.003Z,2.43
2023-01-30T04:30:13.982Z,2.39
2023-01-30T04:32:42.892Z,1.57
2023-01-30T04:35:12.405Z,1.95
2023-01-30T04:37:42.002Z,1.84
2023-01-30T04:40:14.699Z,1.49
2023-01-30T04:42:43.275Z,1.58
2023-01-30T04:45:30.490Z,1.66
2023-01-30T04:47:58.781Z,1.79
2023-01-30T04:50:26.889Z,1.55
2023-01-30T04:52:55.228Z,1.65
2023-01-30T04:55:24.638Z,1.58
2023-01-30T04:57:53.257Z,2.13
2023-01-30T05:00:22.854Z,1.92
2023-01-30T05:02:56.399Z,1.74
2023-01-30T05:05:25.087Z,2.10
2023-01-30T05:07:53.208Z,1.56
2023-01-30T05:10:22.106Z,2.17
2023-01-30T05:12:52.000Z,1.73
2023-01-30T05:15:20.699Z,2.05
2023-01-30T05:17:49.197Z,2.27
2023-01-30T05:20:17.649Z,2.37
2023-01-30T05:22:46.049Z,1.84
2023-01-30T05:25:14.457Z,2.21
2023-01-30T05:27:42.772Z,1.99
2023-01-30T05:30:13.339Z,2.23
2023-01-30T05:32:41.787Z,2.25
2023-01-30T05:35:10.227Z,2.15
2023-01-30T05:37:39.147Z,1.80
2023-01-30T05:40:09.159Z,1.62
2023-01-30T05:42:37.207Z,2.06
2023-01-30T05:45:06.276Z,2.23
2023-01-30T05:47:36.218Z,2.41
2023-01-30T05:50:04.784Z,2.74
2023-01-30T05:52:33.204Z,2.79
2023-01-30T05:55:01.397Z,3.14
2023-01-30T05:57:29.439Z,3.02
2023-01-30T05:59:57.615Z,2.94
2023-01-30T06:02:25.799Z,2.82
2023-01-30T06:04:55.289Z,2.70
2023-01-30T06:07:23.955Z,2.86
2023-01-30T06:09:52.007Z,2.41
2023-01-30T06:12:20.146Z,2.38
2023-01-30T06:14:48.483Z,2.30
2023-01-30T06:17:16.583Z,2.03
2023-01-30T06:19:44.595Z,2.03
2023-01-30T06:22:14.289Z,2.40
2023-01-30T06:24:42.515Z,2.31
2023-01-30T06:27:10.991Z,2.00
2023-01-30T06:29:39.355Z,2.08
2023-01-30T06:32:07.716Z,2.07
2023-01-30T06:34:36.058Z,2.44
2023-01-30T06:37:04.697Z,2.23
2023-01-30T06:39:34.476Z,1.58
2023-01-30T06:42:02.958Z,2.39
2023-01-30T06:44:30.990Z,2.09
2023-01-30T06:46:59.251Z,2.23
2023-01-30T06:49:27.447Z,2.50
2023-01-30T06:51:55.849Z,3.15
2023-01-30T06:54:23.970Z,2.70
2023-01-30T06:56:53.572Z,2.66
2023-01-30T06:59:21.773Z,2.83
2023-01-30T07:01:50.247Z,2.81
2023-01-30T07:04:20.337Z,2.75
2023-01-30T07:06:48.710Z,3.06
2023-01-30T07:09:16.829Z,3.19
2023-01-30T07:11:45.068Z,3.44
2023-01-30T07:14:14.605Z,3.71
2023-01-30T07:16:43.359Z,3.30
2023-01-30T07:19:11.356Z,3.63
2023-01-30T07:21:39.474Z,3.83
2023-01-30T07:24:08.588Z,3.38
2023-01-30T07:26:36.832Z,3.84
2023-01-30T07:29:05.277Z,3.84
2023-01-30T07:31:34.916Z,4.01
2023-01-30T07:34:03.592Z,3.93
2023-01-30T07:36:33.672Z,3.39
2023-01-30T07:39:02.279Z,3.29
2023-01-30T07:41:30.811Z,3.36
2023-01-30T07:43:58.925Z,4.03
2023-01-30T07:46:27.799Z,3.98
2023-01-30T07:48:59.608Z,3.62
2023-01-30T07:51:28.148Z,3.17
2023-01-30T07:53:56.371Z,2.91
2023-01-30T07:56:24.707Z,3.02
2023-01-30T07:58:52.857Z,3.10
2023-01-30T08:05:22.173Z,3.75
2023-01-30T08:07:50.439Z,4.01
2023-01-30T08:10:18.917Z,3.57
2023-01-30T08:12:47.157Z,4.11
2023-01-30T08:15:15.283Z,4.25
2023-01-30T08:17:43.392Z,3.96
2023-01-30T08:20:16.961Z,4.01
2023-01-30T08:22:46.994Z,3.39
2023-01-30T08:25:15.306Z,3.85
2023-01-30T08:27:43.672Z,4.31
2023-01-30T08:30:13.136Z,4.15
2023-01-30T08:32:41.340Z,4.46
2023-01-30T08:35:11.019Z,4.53
2023-01-30T08:37:40.755Z,4.09
2023-01-30T08:40:12.230Z,4.43
2023-01-30T08:42:40.759Z,4.18
2023-01-30T08:45:09.872Z,4.38
2023-01-30T08:47:38.055Z,3.93
2023-01-30T08:50:06.658Z,4.10
2023-01-30T08:52:34.710Z,4.46
2023-01-30T08:55:03.047Z,4.71
2023-01-30T08:57:33.510Z,4.22
2023-01-30T09:00:01.870Z,4.22
2023-01-30T09:02:30.257Z,4.16
2023-01-30T09:04:58.373Z,4.07
2023-01-30T09:07:28.892Z,4.39
2023-01-30T09:09:57.252Z,4.53
2023-01-30T09:12:25.854Z,4.05
2023-01-30T09:14:55.829Z,4.60
2023-01-30T09:17:24.084Z,5.05
2023-01-30T09:19:52.588Z,4.46
2023-01-30T09:22:20.743Z,4.55
2023-01-30T09:24:49.097Z,4.27
2023-01-30T09:27:17.135Z,4.29
2023-01-30T09:29:45.530Z,4.11
2023-01-30T09:32:15.460Z,4.39
2023-01-30T09:34:43.788Z,4.39
2023-01-30T09:37:11.850Z,4.10
2023-01-30T09:39:39.927Z,4.32
2023-01-30T09:42:39.133Z,5.06
2023-01-30T09:45:39.019Z,4.92
2023-01-30T09:48:18.352Z,4.94
2023-01-30T09:51:06.864Z,5.14
2023-01-30T09:53:41.018Z,4.94
2023-01-30T09:56:09.543Z,4.83
2023-01-30T09:58:46.804Z,4.79
2023-01-30T10:01:21.666Z,4.84
2023-01-30T10:04:03.126Z,5.03
2023-01-30T10:06:37.605Z,5.29
2023-01-30T10:09:13.832Z,5.50
2023-01-30T10:11:54.810Z,5.64
2023-01-30T10:14:42.619Z,5.45
2023-01-30T10:17:32.439Z,5.28
2023-01-30T10:20:17.863Z,5.72
2023-01-30T10:22:57.032Z,5.38
2023-01-30T10:25:31.211Z,5.17
2023-01-30T10:28:04.745Z,5.03
2023-01-30T10:30:33.869Z,5.38
2023-01-30T10:33:05.604Z,5.35
2023-01-30T10:35:39.654Z,5.26
2023-01-30T10:38:17.461Z,5.29
2023-01-30T10:40:52.119Z,5.68
2023-01-30T10:43:26.053Z,5.18
2023-01-30T10:46:02.728Z,5.32
2023-01-30T10:48:50.904Z,5.20
2023-01-30T10:54:22.905Z,6.03
2023-01-30T10:57:02.168Z,6.24
2023-01-30T10:59:43.314Z,6.74
2023-01-30T11:02:24.315Z,6.64
2023-01-30T11:04:59.768Z,5.93
2023-01-30T11:07:30.810Z,6.61
2023-01-30T11:10:01.530Z,6.78
2023-01-30T11:12:30.170Z,6.95
2023-01-30T11:15:00.691Z,7.30
2023-01-30T11:17:36.332Z,7.33
2023-01-30T11:20:13.597Z,6.41
2023-01-30T11:22:48.832Z,6.24
2023-01-30T11:25:21.799Z,5.89
2023-01-30T11:27:55.841Z,6.20
2023-01-30T11:30:28.914Z,5.88
2023-01-30T11:33:09.717Z,5.94
2023-01-30T11:35:45.630Z,5.92
2023-01-30T11:38:23.062Z,5.86
2023-01-30T11:41:04.656Z,5.77
2023-01-30T11:43:34.396Z,5.90
2023-01-30T11:46:03.366Z,6.55
2023-01-30T11:49:02.300Z,7.05
2023-01-30T11:51:25.008Z,6.71
2023-01-30T11:53:57.794Z,6.56
2023-01-30T11:56:34.602Z,6.75
2023-01-30T11:59:08.558Z,6.11
2023-01-30T12:01:38.585Z,6.15
2023-01-30T12:04:10.660Z,5.73
2023-01-30T12:06:41.309Z,5.91
2023-01-30T12:09:33.501Z,5.41
2023-01-30T12:12:03.970Z,5.53
2023-01-30T12:14:41.293Z,5.98
2023-01-30T12:17:19.113Z,5.40
2023-01-30T12:19:58.424Z,6.22
2023-01-30T12:22:33.767Z,6.26
2023-01-30T12:25:08.905Z,5.64
2023-01-30T12:27:53.419Z,5.63
2023-01-30T12:30:27.811Z,6.03
2023-01-30T12:35:46.302Z,5.47
2023-01-30T12:38:28.819Z,5.59
2023-01-30T12:41:08.895Z,5.83
2023-01-30T12:43:54.071Z,5.42
2023-01-30T12:46:39.683Z,5.60
2023-01-30T12:49:36.487Z,5.79
2023-01-30T12:52:26.728Z,5.91
2023-01-30T12:55:03.720Z,6.34
2023-01-30T12:57:38.556Z,5.93
2023-01-30T13:00:25.201Z,6.10
2023-01-30T13:03:10.918Z,6.12
2023-01-30T13:05:44.753Z,6.18
2023-01-30T13:08:29.006Z,6.05
2023-01-30T13:11:06.146Z,5.83
2023-01-30T13:13:43.130Z,5.98
2023-01-30T13:16:26.152Z,5.91
2023-01-30T13:18:58.837Z,5.79
2023-01-30T13:21:35.390Z,5.80
2023-01-30T13:24:15.627Z,5.48
2023-01-30T13:26:45.267Z,6.18
2023-01-30T13:29:19.944Z,5.99
2023-01-30T13:31:53.962Z,5.66
2023-01-30T13:34:29.197Z,6.03
2023-01-30T13:37:01.494Z,6.06
2023-01-30T13:39:41.402Z,5.58
2023-01-30T13:42:21.616Z,5.80
2023-01-30T13:44:51.382Z,5.43
2023-01-30T13:47:33.407Z,5.90
2023-01-30T13:50:20.544Z,5.67
2023-01-30T13:52:57.270Z,5.79
2023-01-30T13:55:34.836Z,5.82
2023-01-30T13:58:13.676Z,5.85
2023-01-30T14:00:53.509Z,6.04
2023-01-30T14:03:31.736Z,5.68
2023-01-30T14:06:05.232Z,5.56
2023-01-30T14:08:39.917Z,5.83
2023-01-30T14:11:39.993Z,5.78
2023-01-30T14:14:26.402Z,6.42
2023-01-30T14:16:57.133Z,6.03
2023-01-30T14:19:38.532Z,6.20
2023-01-30T14:22:23.535Z,5.64
2023-01-30T14:25:25.208Z,5.78
2023-01-30T14:27:55.021Z,5.80
2023-01-30T14:30:39.184Z,5.44
2023-01-30T14:33:34.272Z,5.77
2023-01-30T14:36:37.673Z,5.57
2023-01-30T14:39:40.204Z,5.35
2023-01-30T14:42:25.602Z,5.77
2023-01-30T14:45:02.186Z,5.47
2023-01-30T14:47:35.143Z,5.55
2023-01-30T14:50:20.793Z,5.88
2023-01-30T14:52:55.654Z,5.81
2023-01-30T14:55:29.706Z,5.67
2023-01-30T14:58:02.415Z,5.75
2023-01-30T15:00:33.192Z,5.76
2023-01-30T15:03:04.936Z,5.95
2023-01-30T15:05:35.392Z,5.87
2023-01-30T15:08:17.874Z,5.61
2023-01-30T15:10:59.739Z,5.19
2023-01-30T15:13:43.608Z,5.89
2023-01-30T15:16:33.724Z,5.94
2023-01-30T15:19:26.130Z,5.20
2023-01-30T15:22:10.976Z,5.13
2023-01-30T15:24:58.094Z,5.39
2023-01-30T15:27:35.235Z,5.64
2023-01-30T15:30:22.779Z,5.36
2023-01-30T15:32:50.939Z,5.55
2023-01-30T15:35:29.672Z,5.39
2023-01-30T15:37:58.162Z,5.36
2023-01-30T15:40:29.491Z,5.10
2023-01-30T15:43:14.567Z,5.48
2023-01-30T15:45:53.496Z,5.35
2023-01-30T15:48:40.959Z,5.69
2023-01-30T15:51:14.571Z,4.74
2023-01-30T15:53:45.579Z,5.29
2023-01-30T15:56:21.590Z,4.89
2023-01-30T15:58:51.171Z,4.67
2023-01-30T16:01:21.298Z,4.57
2023-01-30T16:03:53.350Z,4.61
2023-01-30T16:06:29.725Z,4.91
2023-01-30T16:09:00.583Z,5.34
2023-01-30T16:11:39.208Z,4.81
2023-01-30T16:14:11.971Z,5.18
2023-01-30T16:16:43.242Z,5.01
2023-01-30T16:19:22.413Z,4.96
2023-01-30T16:21:51.463Z,5.29
2023-01-30T16:24:22.560Z,5.09
2023-01-30T16:26:58.175Z,4.83
2023-01-30T16:29:29.811Z,4.90
2023-01-30T16:31:58.621Z,5.03
2023-01-30T16:34:31.794Z,4.73
2023-01-30T16:37:05.677Z,5.06
2023-01-30T16:39:35.741Z,5.07
2023-01-30T16:42:20.051Z,5.00
2023-01-30T16:44:48.454Z,5.04
2023-01-30T16:47:25.085Z,5.07
2023-01-30T16:49:55.841Z,5.33
2023-01-30T16:52:27.077Z,5.45
2023-01-30T16:54:57.212Z,5.69
2023-01-30T16:57:39.827Z,4.95
2023-01-30T17:00:21.531Z,5.40
2023-01-30T17:02:52.905Z,5.15
2023-01-30T17:05:23.704Z,4.79
2023-01-30T17:07:52.948Z,5.73
2023-01-30T17:11:02.599Z,5.22
2023-01-30T17:13:37.699Z,4.75
2023-01-30T17:16:27.119Z,5.10
2023-01-30T17:18:58.251Z,4.86
2023-01-30T17:21:31.206Z,4.76
2023-01-30T17:24:01.716Z,5.10
2023-01-30T17:26:30.819Z,5.62
2023-01-30T17:29:00.648Z,5.25
2023-01-30T17:31:28.917Z,4.89
2023-01-30T17:33:57.266Z,4.74
2023-01-30T17:36:28.555Z,5.06
2023-01-30T17:38:57.126Z,5.10
2023-01-30T17:41:28.479Z,4.96
2023-01-30T17:43:56.449Z,4.98
2023-01-30T17:46:33.969Z,4.86
2023-01-30T17:49:02.464Z,5.03
2023-01-30T17:51:30.508Z,4.80
2023-01-30T17:53:58.867Z,5.09
2023-01-30T17:56:35.276Z,4.98
2023-01-30T17:59:05.691Z,5.21
2023-01-30T18:01:35.461Z,4.89
2023-01-30T18:04:03.734Z,5.01
2023-01-30T18:06:32.186Z,4.96
2023-01-30T18:09:01.123Z,5.08
2023-01-30T18:11:29.303Z,4.96
2023-01-30T18:13:58.055Z,5.00
2023-01-30T18:16:31.133Z,4.71
2023-01-30T18:19:04.024Z,4.98
2023-01-30T18:21:33.084Z,5.26
2023-01-30T18:24:01.141Z,4.97
2023-01-30T18:26:30.086Z,4.54
2023-01-30T18:28:58.414Z,4.66
2023-01-30T18:31:29.456Z,4.88
2023-01-30T18:33:57.745Z,4.98
2023-01-30T18:36:27.345Z,4.91
2023-01-30T18:38:55.992Z,4.84
2023-01-30T18:41:25.626Z,4.65
2023-01-30T18:43:55.824Z,5.28
2023-01-30T18:46:24.725Z,4.93
2023-01-30T18:48:52.896Z,4.96
2023-01-30T18:51:22.808Z,4.37
2023-01-30T18:53:53.864Z,4.75
2023-01-30T18:56:24.461Z,4.90
2023-01-30T18:58:53.340Z,5.01
2023-01-30T19:01:23.588Z,5.00
2023-01-30T19:03:55.475Z,4.94
2023-01-30T19:06:24.056Z,5.05
2023-01-30T19:08:53.706Z,5.13
2023-01-30T19:11:40.540Z,4.83
2023-01-30T19:14:10.394Z,5.11
2023-01-30T19:16:40.077Z,5.21
2023-01-30T19:19:10.032Z,5.14
2023-01-30T19:21:39.028Z,5.62
2023-01-30T19:24:12.678Z,5.42
2023-01-30T19:26:40.818Z,5.49
2023-01-30T19:29:09.231Z,5.66
2023-01-30T19:31:37.731Z,5.91
2023-01-30T19:34:06.557Z,5.27
2023-01-30T19:36:36.053Z,5.60
2023-01-30T19:39:06.333Z,5.36
2023-01-30T19:41:37.101Z,5.26
2023-01-30T19:44:07.658Z,5.47
2023-01-30T19:46:36.366Z,5.22
2023-01-30T19:49:05.831Z,5.43
2023-01-30T19:51:35.413Z,5.26
2023-01-30T19:54:05.573Z,5.40
2023-01-30T19:56:36.757Z,5.50
2023-01-30T19:59:05.057Z,5.82
2023-01-30T20:01:37.675Z,5.64
2023-01-30T20:04:06.745Z,5.65
2023-01-30T20:06:36.326Z,5.69
2023-01-30T20:09:06.041Z,5.76
2023-01-30T20:11:37.506Z,5.25
2023-01-30T20:14:07.169Z,5.75
2023-01-30T20:16:36.435Z,5.64
2023-01-30T20:19:07.134Z,5.53
2023-01-30T20:21:36.231Z,5.16
2023-01-30T20:24:05.126Z,5.34
2023-01-30T20:26:36.610Z,5.38
2023-01-30T20:29:05.675Z,5.52
2023-01-30T20:31:34.721Z,5.32
2023-01-30T20:34:03.736Z,5.43
2023-01-30T20:36:31.837Z,5.26
2023-01-30T20:39:04.172Z,5.49
2023-01-30T20:41:35.155Z,5.35
2023-01-30T20:44:06.247Z,5.81
2023-01-30T20:46:41.055Z,5.50
2023-01-30T20:49:13.887Z,5.85
2023-01-30T20:51:42.201Z,5.89
2023-01-30T20:54:12.771Z,5.65
2023-01-30T20:56:43.913Z,5.98
2023-01-30T20:59:16.114Z,5.94
2023-01-30T21:01:44.760Z,5.87
2023-01-30T21:04:14.565Z,5.85
2023-01-30T21:06:45.951Z,5.96
2023-01-30T21:09:17.386Z,5.67
2023-01-30T21:11:45.574Z,6.10
2023-01-30T21:14:16.092Z,5.94
2023-01-30T21:16:44.396Z,5.60
2023-01-30T21:19:15.238Z,5.57
2023-01-30T21:21:47.596Z,5.87
2023-01-30T21:24:16.345Z,5.89
2023-01-30T21:26:47.511Z,5.76
2023-01-30T21:29:18.693Z,5.92
2023-01-30T21:31:46.863Z,5.57
2023-01-30T21:34:15.405Z,5.63
2023-01-30T21:36:43.579Z,5.67
2023-01-30T21:39:32.041Z,6.02
2023-01-30T21:42:18.388Z,5.47
2023-01-30T21:44:48.796Z,6.05
2023-01-30T21:47:16.841Z,6.11
2023-01-30T21:49:45.608Z,5.84
2023-01-30T21:52:13.578Z,5.57
2023-01-30T21:54:41.886Z,6.03
2023-01-30T21:57:10.061Z,5.34
2023-01-30T21:59:38.084Z,5.55
2023-01-30T22:02:07.443Z,5.86
2023-01-30T22:04:36.566Z,5.72
2023-01-30T22:07:06.776Z,5.68
2023-01-30T22:09:34.887Z,6.00
2023-01-30T22:12:03.095Z,5.94
2023-01-30T22:14:33.286Z,5.84
2023-01-30T22:17:01.543Z,5.77
2023-01-30T22:19:35.577Z,5.85
2023-01-30T22:22:04.960Z,5.71
2023-01-30T22:24:32.966Z,5.69
2023-01-30T22:27:00.977Z,5.40
2023-01-30T22:29:29.242Z,5.57
2023-01-30T22:31:57.431Z,5.59
2023-01-30T22:34:25.564Z,5.75
2023-01-30T22:36:54.962Z,5.80
2023-01-30T22:39:22.981Z,5.60
2023-01-30T22:41:51.858Z,5.83
2023-01-30T22:44:19.826Z,5.95
2023-01-30T22:46:47.952Z,5.70
2023-01-30T22:49:16.499Z,5.45
2023-01-30T22:51:44.486Z,5.44
2023-01-30T22:54:16.582Z,5.19
2023-01-30T22:56:46.146Z,5.29
2023-01-30T22:59:14.623Z,5.17
2023-01-30T23:01:44.813Z,4.89
2023-01-30T23:04:15.063Z,4.84
2023-01-30T23:06:44.852Z,4.66
2023-01-30T23:09:17.072Z,4.54
2023-01-30T23:12:08.018Z,4.82
2023-01-30T23:14:36.888Z,4.94
2023-01-30T23:17:26.495Z,4.64
2023-01-30T23:19:54.501Z,5.09
2023-01-30T23:22:22.767Z,4.69
2023-01-30T23:24:53.095Z,5.16
2023-01-30T23:27:21.966Z,4.48
2023-01-30T23:29:50.127Z,4.40
2023-01-30T23:32:20.145Z,4.72
2023-01-30T23:34:48.468Z,4.85
2023-01-30T23:37:17.721Z,4.84
2023-01-30T23:39:46.612Z,4.78
2023-01-30T23:42:16.227Z,4.96
2023-01-30T23:44:44.235Z,5.08
2023-01-30T23:47:12.241Z,4.84
2023-01-30T23:49:40.603Z,5.08
2023-01-30T23:52:10.332Z,4.92
2023-01-30T23:54:38.716Z,4.77
2023-01-30T23:57:06.825Z,4.78
2023-01-30T23:59:36.450Z,5.12
